createdAt,value
2019-01-24T00:01:16.999Z,85.17
2019-01-24T00:03:46.937Z,73.22
2019-01-24T00:06:17.182Z,79.22
2019-01-24T00:08:46.907Z,85.60
2019-01-24T00:11:17.333Z,94.47
2019-01-24T00:13:48.109Z,97.10
2019-01-24T00:16:38.345Z,89.92
2019-01-24T00:19:09.118Z,84.25
2019-01-24T00:21:39.746Z,88.20
2019-01-24T00:24:10.087Z,88.03
2019-01-24T00:29:29.965Z,83.85
2019-01-24T00:31:59.657Z,75.22
2019-01-24T00:34:30.095Z,80.35
2019-01-24T00:37:00.094Z,81.67
2019-01-24T00:39:30.683Z,80.75
2019-01-24T00:42:00.793Z,86.55
2019-01-24T00:44:31.240Z,75.42
2019-01-24T00:47:01.275Z,84.45
2019-01-24T00:49:31.722Z,77.80
2019-01-24T00:52:02.020Z,75.05
2019-01-24T00:54:32.281Z,87.72
2019-01-24T00:57:02.617Z,78.35
2019-01-24T00:59:33.004Z,84.60
2019-01-24T01:02:02.830Z,87.12
2019-01-24T01:04:32.852Z,83.67
2019-01-24T01:07:04.507Z,78.87
2019-01-24T01:09:34.136Z,86.47
2019-01-24T01:12:03.596Z,79.10
2019-01-24T01:14:53.849Z,84.77
2019-01-24T01:17:24.825Z,78.85
2019-01-24T01:19:54.838Z,86.28
2019-01-24T01:22:25.916Z,84.52
2019-01-24T01:24:56.166Z,79.05
2019-01-24T01:27:26.134Z,80.90
2019-01-24T01:29:56.021Z,79.00
2019-01-24T01:32:26.414Z,81.50
2019-01-24T01:34:56.033Z,79.80
2019-01-24T01:37:24.910Z,83.62
2019-01-24T01:39:54.812Z,84.03
2019-01-24T01:42:45.529Z,80.55
2019-01-24T01:45:18.122Z,77.32
2019-01-24T01:47:48.673Z,81.87
2019-01-24T01:50:24.001Z,87.37
2019-01-24T01:52:54.994Z,82.05
2019-01-24T01:55:24.959Z,78.87
2019-01-24T01:57:55.900Z,78.85
2019-01-24T02:00:26.607Z,82.05
2019-01-24T02:02:57.251Z,80.77
2019-01-24T02:05:28.198Z,81.60
2019-01-24T02:07:58.985Z,94.62
2019-01-24T02:10:28.963Z,84.28
2019-01-24T02:13:00.059Z,81.57
2019-01-24T02:15:28.780Z,82.53
2019-01-24T02:17:57.457Z,74.75
2019-01-24T02:20:27.579Z,85.90
2019-01-24T02:22:57.837Z,79.00
2019-01-24T02:25:27.709Z,87.92
2019-01-24T02:27:57.845Z,96.32
2019-01-24T02:30:29.143Z,95.85
2019-01-24T02:32:59.482Z,88.30
2019-01-24T02:35:29.552Z,85.53
2019-01-24T02:37:59.870Z,79.27
2019-01-24T02:40:30.080Z,85.25
2019-01-24T02:43:00.355Z,79.67
2019-01-24T02:45:30.863Z,108.75
2019-01-24T02:48:01.052Z,87.97
2019-01-24T02:50:31.136Z,82.78
2019-01-24T02:53:01.277Z,87.60
2019-01-24T02:55:32.462Z,84.35
2019-01-24T02:58:02.695Z,82.42
2019-01-24T03:00:32.843Z,87.72
2019-01-24T03:03:03.196Z,90.70
2019-01-24T03:05:33.764Z,81.12
2019-01-24T03:08:04.167Z,87.95
2019-01-24T03:10:34.655Z,93.67
2019-01-24T03:13:04.856Z,92.62
2019-01-24T03:15:35.403Z,86.37
2019-01-24T03:18:05.503Z,96.15
2019-01-24T03:20:35.935Z,88.30
2019-01-24T03:23:06.065Z,89.60
2019-01-24T03:25:36.453Z,98.15
2019-01-24T03:28:07.849Z,95.60
2019-01-24T03:30:37.984Z,85.65
2019-01-24T03:33:08.509Z,93.87
2019-01-24T03:35:38.524Z,97.67
2019-01-24T03:38:10.086Z,91.63
2019-01-24T03:40:40.895Z,102.40
2019-01-24T03:43:11.068Z,97.55
2019-01-24T03:45:41.679Z,91.80
2019-01-24T03:48:11.705Z,100.05
2019-01-24T03:50:41.862Z,89.77
2019-01-24T03:53:11.702Z,80.85
2019-01-24T03:55:44.603Z,86.05
2019-01-24T03:58:15.251Z,101.53
2019-01-24T04:00:45.010Z,88.52
2019-01-24T04:03:15.177Z,93.42
2019-01-24T04:05:45.113Z,95.40
2019-01-24T04:08:16.205Z,89.22
2019-01-24T04:10:46.895Z,96.32
2019-01-24T04:13:17.115Z,83.30
2019-01-24T04:15:48.231Z,91.05
2019-01-24T04:18:18.466Z,80.95
2019-01-24T04:20:48.208Z,93.10
2019-01-24T04:23:18.602Z,83.07
2019-01-24T04:25:51.682Z,77.90
2019-01-24T04:28:22.818Z,86.67
2019-01-24T04:30:52.925Z,88.80
2019-01-24T04:33:23.459Z,88.25
2019-01-24T04:35:53.572Z,97.60
2019-01-24T04:38:23.936Z,79.75
2019-01-24T04:40:54.288Z,76.70
2019-01-24T04:43:24.198Z,91.70
2019-01-24T04:45:55.060Z,87.92
2019-01-24T04:48:25.168Z,75.87
2019-01-24T04:50:54.966Z,90.30
2019-01-24T04:53:24.833Z,89.72
2019-01-24T04:55:54.907Z,89.95
2019-01-24T04:58:25.038Z,97.50
2019-01-24T05:00:54.624Z,85.75
2019-01-24T05:03:22.953Z,81.32
2019-01-24T05:05:53.346Z,86.65
2019-01-24T05:08:24.608Z,90.97
2019-01-24T05:10:54.196Z,84.10
2019-01-24T05:13:23.590Z,89.83
2019-01-24T05:15:52.445Z,85.45
2019-01-24T05:18:22.524Z,89.13
2019-01-24T05:20:52.597Z,84.28
2019-01-24T05:23:22.419Z,79.42
2019-01-24T05:25:52.706Z,82.62
2019-01-24T05:28:22.647Z,88.22
2019-01-24T05:30:52.847Z,93.40
2019-01-24T05:33:22.854Z,77.58
2019-01-24T05:35:53.097Z,82.97
2019-01-24T05:38:23.228Z,74.37
2019-01-24T05:40:54.916Z,78.55
2019-01-24T05:43:25.044Z,88.37
2019-01-24T05:45:55.619Z,91.70
2019-01-24T05:48:25.793Z,85.40
2019-01-24T05:50:55.777Z,80.38
2019-01-24T05:53:25.983Z,81.67
2019-01-24T05:55:56.131Z,88.42
2019-01-24T05:58:25.865Z,89.42
2019-01-24T06:00:55.963Z,84.10
2019-01-24T06:03:26.157Z,82.22
2019-01-24T06:05:56.300Z,88.97
2019-01-24T06:08:26.677Z,95.90
2019-01-24T06:10:56.513Z,88.90
2019-01-24T06:13:27.079Z,87.37
2019-01-24T06:15:57.348Z,77.10
2019-01-24T06:18:26.929Z,79.67
2019-01-24T06:20:56.949Z,89.07
2019-01-24T06:23:27.032Z,84.77
2019-01-24T06:25:57.077Z,84.90
2019-01-24T06:28:27.457Z,80.65
2019-01-24T06:30:59.001Z,78.10
2019-01-24T06:33:29.475Z,82.55
2019-01-24T06:35:59.507Z,86.20
2019-01-24T06:38:29.616Z,86.30
2019-01-24T06:40:59.613Z,81.67
2019-01-24T06:43:29.485Z,88.47
2019-01-24T06:45:59.318Z,88.78
2019-01-24T06:48:29.943Z,94.20
2019-01-24T06:51:02.666Z,81.90
2019-01-24T06:53:33.254Z,93.12
2019-01-24T06:56:01.563Z,87.85
2019-01-24T06:58:31.864Z,86.30
2019-01-24T07:01:02.148Z,78.35
2019-01-24T07:03:32.387Z,79.40
2019-01-24T07:06:02.466Z,76.57
2019-01-24T07:08:31.809Z,78.75
2019-01-24T07:11:01.992Z,84.75
2019-01-24T07:13:52.729Z,84.30
2019-01-24T07:16:22.970Z,87.97
2019-01-24T07:19:13.301Z,79.10
2019-01-24T07:21:42.063Z,79.07
2019-01-24T07:24:32.666Z,83.65
2019-01-24T07:27:02.542Z,82.75
2019-01-24T07:29:33.103Z,83.65
2019-01-24T07:32:03.330Z,90.28
2019-01-24T07:34:32.922Z,75.50
2019-01-24T07:37:05.855Z,74.32
2019-01-24T07:39:36.102Z,71.40
2019-01-24T07:42:06.424Z,81.92
2019-01-24T07:44:36.113Z,74.15
2019-01-24T07:47:06.675Z,76.65
2019-01-24T07:49:39.921Z,76.45
2019-01-24T07:52:10.082Z,82.50
2019-01-24T07:54:40.319Z,73.37
2019-01-24T07:57:10.546Z,89.50
2019-01-24T07:59:40.595Z,75.05
2019-01-24T08:02:12.408Z,91.80
2019-01-24T08:04:42.878Z,87.08
2019-01-24T08:07:11.944Z,86.82
2019-01-24T08:09:42.006Z,82.08
2019-01-24T08:12:45.692Z,89.45
2019-01-24T08:15:17.522Z,91.15
2019-01-24T08:17:47.378Z,74.47
2019-01-24T08:20:18.831Z,93.07
2019-01-24T08:22:48.802Z,78.45
2019-01-24T08:25:18.453Z,93.22
2019-01-24T08:27:48.613Z,87.05
2019-01-24T08:30:21.880Z,101.25
2019-01-24T08:32:50.881Z,90.42
2019-01-24T08:35:20.340Z,89.90
2019-01-24T08:37:53.218Z,97.50
2019-01-24T08:40:39.601Z,75.70
2019-01-24T08:43:09.014Z,85.32
2019-01-24T08:45:38.865Z,77.32
2019-01-24T08:48:10.305Z,82.20
2019-01-24T08:50:41.091Z,85.35
2019-01-24T08:53:09.985Z,82.47
2019-01-24T08:55:40.226Z,86.35
2019-01-24T08:58:10.161Z,86.85
2019-01-24T09:00:40.992Z,94.80
2019-01-24T09:03:12.543Z,85.05
2019-01-24T09:05:42.498Z,83.92
2019-01-24T09:08:13.305Z,85.85
2019-01-24T09:10:43.315Z,89.58
2019-01-24T09:13:13.308Z,88.97
2019-01-24T09:15:42.859Z,83.72
2019-01-24T09:18:12.723Z,84.42
2019-01-24T09:20:44.453Z,79.47
2019-01-24T09:23:14.567Z,83.78
2019-01-24T09:25:45.057Z,90.20
2019-01-24T09:28:16.189Z,93.17
2019-01-24T09:30:45.793Z,83.82
2019-01-24T09:33:15.822Z,89.60
2019-01-24T09:35:46.048Z,94.75
2019-01-24T09:38:14.982Z,86.12
2019-01-24T09:40:46.203Z,84.30
2019-01-24T09:43:18.792Z,80.28
2019-01-24T09:45:49.035Z,78.37
2019-01-24T09:48:23.155Z,76.55
2019-01-24T09:50:53.002Z,74.20
2019-01-24T09:53:23.429Z,81.95
2019-01-24T09:55:53.370Z,78.25
2019-01-24T09:58:23.560Z,81.08
2019-01-24T10:01:13.982Z,74.67
2019-01-24T10:03:44.322Z,74.67
2019-01-24T10:06:14.725Z,74.10
2019-01-24T10:08:44.887Z,64.80
2019-01-24T10:11:15.084Z,71.75
2019-01-24T10:13:45.177Z,65.12
2019-01-24T10:16:15.523Z,66.80
2019-01-24T10:18:43.848Z,70.28
2019-01-24T10:21:13.721Z,77.55
2019-01-24T10:23:44.173Z,77.42
2019-01-24T10:26:14.694Z,71.50
2019-01-24T10:28:44.720Z,71.57
2019-01-24T10:31:15.568Z,68.22
2019-01-24T10:33:45.638Z,66.67
2019-01-24T10:36:15.587Z,64.30
2019-01-24T10:38:46.049Z,72.40
2019-01-24T10:41:16.012Z,67.20
2019-01-24T10:43:46.402Z,65.37
2019-01-24T10:46:17.901Z,76.85
2019-01-24T10:48:48.921Z,69.45
2019-01-24T10:51:19.055Z,70.25
2019-01-24T10:53:49.506Z,70.45
2019-01-24T10:56:19.450Z,62.05
2019-01-24T10:58:50.037Z,61.20
2019-01-24T11:01:40.760Z,67.12
2019-01-24T11:04:11.193Z,63.40
2019-01-24T11:06:40.965Z,65.45
2019-01-24T11:09:11.391Z,61.55
2019-01-24T11:11:41.460Z,58.38
2019-01-24T11:14:11.835Z,62.43
2019-01-24T11:16:41.805Z,65.55
2019-01-24T11:19:12.357Z,55.65
2019-01-24T11:21:42.520Z,67.82
2019-01-24T11:24:12.598Z,61.75
2019-01-24T11:26:43.862Z,57.60
2019-01-24T11:29:14.054Z,64.22
2019-01-24T11:31:44.403Z,59.00
2019-01-24T11:34:16.002Z,66.90
2019-01-24T11:36:45.972Z,62.73
2019-01-24T11:39:16.436Z,68.42
2019-01-24T11:41:46.347Z,65.08
2019-01-24T11:44:16.671Z,71.53
2019-01-24T11:46:46.679Z,75.70
2019-01-24T11:49:15.002Z,72.25
2019-01-24T11:51:43.469Z,73.90
2019-01-24T11:54:13.722Z,70.20
2019-01-24T11:56:43.951Z,73.05
2019-01-24T11:59:14.564Z,72.85
2019-01-24T12:01:44.789Z,71.45
2019-01-24T12:04:13.833Z,70.35
2019-01-24T12:06:44.036Z,63.42
2019-01-24T12:09:13.843Z,66.90
2019-01-24T12:11:43.899Z,67.65
2019-01-24T12:14:13.846Z,67.27
2019-01-24T12:16:44.358Z,60.58
2019-01-24T12:19:13.133Z,65.32
2019-01-24T12:21:42.849Z,68.87
2019-01-24T12:24:12.347Z,72.17
2019-01-24T12:26:42.974Z,63.23
2019-01-24T12:29:11.525Z,60.17
2019-01-24T12:31:40.100Z,64.05
2019-01-24T12:34:09.829Z,59.42
2019-01-24T12:37:01.478Z,72.47
2019-01-24T12:39:31.150Z,71.15
2019-01-24T12:42:01.577Z,63.73
2019-01-24T12:44:31.470Z,64.65
2019-01-24T12:47:01.822Z,77.90
2019-01-24T12:49:31.256Z,62.90
2019-01-24T12:52:07.311Z,79.05
2019-01-24T12:54:36.939Z,62.53
2019-01-24T12:57:09.658Z,80.55
2019-01-24T12:59:39.325Z,70.50
2019-01-24T13:02:29.883Z,76.17
2019-01-24T13:04:59.739Z,70.90
2019-01-24T13:07:29.898Z,67.85
2019-01-24T13:10:00.408Z,72.17
2019-01-24T13:12:32.441Z,89.87
2019-01-24T13:15:02.255Z,75.87
2019-01-24T13:17:32.227Z,69.65
2019-01-24T13:20:02.631Z,70.42
2019-01-24T13:22:32.010Z,78.30
2019-01-24T13:25:01.995Z,64.72
2019-01-24T13:27:32.847Z,79.60
2019-01-24T13:30:03.313Z,73.78
2019-01-24T13:32:35.307Z,71.90
2019-01-24T13:35:05.639Z,85.55
2019-01-24T13:37:35.341Z,71.40
2019-01-24T13:40:05.491Z,73.35
2019-01-24T13:42:37.276Z,76.05
2019-01-24T13:45:10.373Z,71.72
2019-01-24T13:47:39.199Z,69.42
2019-01-24T13:50:11.862Z,74.50
2019-01-24T13:52:41.201Z,73.57
2019-01-24T13:55:11.273Z,73.40
2019-01-24T13:57:41.374Z,81.53
2019-01-24T14:00:24.361Z,77.03
2019-01-24T14:03:15.866Z,74.35
2019-01-24T14:05:46.091Z,76.45
2019-01-24T14:08:15.137Z,71.93
2019-01-24T14:10:45.410Z,83.42
2019-01-24T14:13:14.009Z,78.70
2019-01-24T14:15:44.126Z,76.05
2019-01-24T14:18:13.638Z,81.28
2019-01-24T14:20:43.699Z,85.62
2019-01-24T14:23:14.768Z,86.70
2019-01-24T14:25:44.653Z,84.10
2019-01-24T14:28:14.760Z,86.02
2019-01-24T14:31:04.494Z,78.62
2019-01-24T14:33:34.862Z,82.55
2019-01-24T14:36:05.211Z,80.45
2019-01-24T14:38:35.310Z,88.35
2019-01-24T14:41:05.555Z,89.95
2019-01-24T14:43:35.513Z,85.67
2019-01-24T14:46:04.499Z,81.72
2019-01-24T14:48:35.584Z,81.85
2019-01-24T14:51:05.619Z,78.45
2019-01-24T14:53:34.465Z,77.25
2019-01-24T14:56:04.719Z,83.22
2019-01-24T14:58:33.761Z,99.52
2019-01-24T15:01:05.608Z,92.27
2019-01-24T15:03:35.926Z,87.22
2019-01-24T15:06:05.560Z,99.15
2019-01-24T15:08:35.669Z,85.32
2019-01-24T15:11:05.211Z,76.85
2019-01-24T15:13:35.569Z,83.60
2019-01-24T15:16:26.079Z,82.53
2019-01-24T15:18:56.572Z,77.87
2019-01-24T15:21:27.647Z,86.02
2019-01-24T15:23:58.012Z,80.47
2019-01-24T15:26:27.495Z,77.00
2019-01-24T15:28:57.825Z,79.35
2019-01-24T15:31:27.446Z,90.22
2019-01-24T15:33:58.485Z,81.17
2019-01-24T15:36:28.593Z,86.12
2019-01-24T15:38:57.449Z,83.15
2019-01-24T15:41:27.729Z,92.33
2019-01-24T15:43:57.894Z,86.78
2019-01-24T15:46:27.871Z,96.00
2019-01-24T15:48:58.265Z,84.03
2019-01-24T15:51:28.130Z,98.37
2019-01-24T15:53:57.907Z,82.47
2019-01-24T15:56:29.104Z,86.92
2019-01-24T15:58:59.226Z,74.35
2019-01-24T16:01:30.582Z,86.63
2019-01-24T16:04:00.331Z,97.50
2019-01-24T16:06:30.387Z,80.40
2019-01-24T16:09:01.504Z,79.30
2019-01-24T16:11:30.827Z,76.30
2019-01-24T16:14:01.584Z,89.50
2019-01-24T16:16:31.682Z,79.90
2019-01-24T16:19:01.249Z,78.40
2019-01-24T16:21:33.253Z,72.15
2019-01-24T16:24:04.331Z,89.15
2019-01-24T16:26:37.469Z,73.65
2019-01-24T16:29:07.604Z,75.30
2019-01-24T16:31:38.028Z,74.32
2019-01-24T16:34:08.060Z,84.72
2019-01-24T16:36:36.499Z,82.80
2019-01-24T16:39:08.628Z,80.80
2019-01-24T16:41:38.485Z,86.45
2019-01-24T16:44:08.512Z,78.72
2019-01-24T16:46:38.709Z,85.20
2019-01-24T16:49:08.808Z,86.55
2019-01-24T16:51:38.224Z,99.87
2019-01-24T16:54:08.079Z,88.33
2019-01-24T16:56:38.166Z,92.47
2019-01-24T16:59:08.383Z,81.90
2019-01-24T17:01:38.632Z,80.95
2019-01-24T17:04:10.849Z,86.55
2019-01-24T17:06:41.146Z,96.17
2019-01-24T17:09:12.310Z,79.17
2019-01-24T17:11:42.321Z,88.72
2019-01-24T17:14:12.242Z,75.75
2019-01-24T17:16:42.531Z,81.20
2019-01-24T17:19:12.804Z,94.80
2019-01-24T17:21:43.196Z,91.60
2019-01-24T17:24:13.434Z,84.25
2019-01-24T17:26:43.677Z,84.50
2019-01-24T17:29:13.720Z,87.80
2019-01-24T17:31:43.342Z,88.92
2019-01-24T17:34:13.342Z,96.08
2019-01-24T17:36:45.659Z,80.77
2019-01-24T17:39:17.174Z,91.12
2019-01-24T17:41:46.040Z,95.90
2019-01-24T17:44:15.745Z,96.08
2019-01-24T17:46:51.520Z,99.40
2019-01-24T17:49:41.794Z,82.55
2019-01-24T17:52:10.630Z,72.47
2019-01-24T17:54:42.161Z,89.75
2019-01-24T17:57:11.776Z,74.50
2019-01-24T17:59:41.590Z,85.95
2019-01-24T18:02:11.322Z,78.10
2019-01-24T18:04:41.496Z,85.20
2019-01-24T18:07:11.249Z,93.82
2019-01-24T18:09:42.224Z,95.28
2019-01-24T18:12:14.980Z,106.15
2019-01-24T18:14:45.792Z,88.17
2019-01-24T18:17:16.208Z,99.95
2019-01-24T18:19:45.646Z,96.45
2019-01-24T18:22:15.850Z,94.22
2019-01-24T18:24:44.906Z,104.38
2019-01-24T18:27:15.788Z,87.88
2019-01-24T18:29:44.576Z,87.97
2019-01-24T18:32:14.635Z,89.62
2019-01-24T18:34:43.229Z,86.85
2019-01-24T18:37:13.605Z,86.60
2019-01-24T18:39:43.016Z,87.97
2019-01-24T18:42:13.176Z,111.25
2019-01-24T18:44:43.124Z,89.77
2019-01-24T18:47:13.003Z,99.50
2019-01-24T18:49:42.654Z,88.95
2019-01-24T18:52:13.921Z,94.92
2019-01-24T18:54:44.149Z,80.75
2019-01-24T18:57:14.469Z,90.35
2019-01-24T18:59:44.383Z,88.58
2019-01-24T19:02:14.004Z,92.25
2019-01-24T19:04:43.654Z,99.28
2019-01-24T19:07:14.252Z,90.42
2019-01-24T19:09:44.530Z,85.95
2019-01-24T19:12:14.835Z,97.08
2019-01-24T19:14:44.677Z,84.03
2019-01-24T19:17:13.558Z,82.33
2019-01-24T19:19:42.617Z,85.25
2019-01-24T19:22:11.244Z,81.00
2019-01-24T19:24:39.766Z,82.88
2019-01-24T19:27:09.236Z,76.62
2019-01-24T19:29:38.948Z,75.97
2019-01-24T19:32:08.091Z,74.42
2019-01-24T19:34:38.127Z,81.02
2019-01-24T19:37:06.533Z,83.85
2019-01-24T19:39:36.791Z,74.12
2019-01-24T19:42:06.230Z,78.25
2019-01-24T19:44:35.104Z,78.22
2019-01-24T19:47:05.427Z,84.50
2019-01-24T19:49:35.419Z,81.90
2019-01-24T19:52:04.569Z,70.85
2019-01-24T19:54:34.551Z,77.78
2019-01-24T19:57:03.194Z,85.53
2019-01-24T19:59:32.526Z,75.52
2019-01-24T20:02:01.482Z,85.07
2019-01-24T20:04:30.138Z,68.42
2019-01-24T20:07:00.032Z,84.20
2019-01-24T20:09:28.861Z,77.50
2019-01-24T20:12:03.186Z,87.67
2019-01-24T20:14:34.450Z,80.25
2019-01-24T20:17:04.489Z,85.87
2019-01-24T20:19:34.190Z,82.60
2019-01-24T20:22:02.680Z,83.45
2019-01-24T20:24:31.897Z,85.45
2019-01-24T20:27:00.868Z,71.42
2019-01-24T20:29:29.650Z,84.92
2019-01-24T20:31:58.134Z,83.47
2019-01-24T20:34:26.989Z,82.80
2019-01-24T20:36:56.031Z,77.70
2019-01-24T20:39:25.782Z,79.05
2019-01-24T20:41:54.858Z,90.28
2019-01-24T20:44:24.682Z,93.75
2019-01-24T20:46:54.976Z,87.85
2019-01-24T20:49:24.118Z,81.05
2019-01-24T20:51:54.007Z,84.50
2019-01-24T20:54:24.392Z,89.97
2019-01-24T20:56:54.393Z,81.15
2019-01-24T20:59:25.639Z,94.07
2019-01-24T21:01:55.904Z,89.58
2019-01-24T21:04:27.159Z,83.25
2019-01-24T21:06:57.104Z,84.05
2019-01-24T21:09:27.459Z,88.27
2019-01-24T21:12:00.832Z,100.07
2019-01-24T21:14:29.974Z,95.10
2019-01-24T21:16:59.963Z,84.52
2019-01-24T21:19:29.412Z,84.62
2019-01-24T21:21:59.489Z,93.03
2019-01-24T21:24:29.413Z,86.57
2019-01-24T21:26:59.389Z,94.47
2019-01-24T21:29:29.386Z,77.53
2019-01-24T21:31:59.165Z,87.70
2019-01-24T21:34:29.166Z,90.80
2019-01-24T21:37:00.660Z,92.08
2019-01-24T21:39:30.002Z,88.95
2019-01-24T21:42:04.732Z,101.62
2019-01-24T21:44:34.903Z,89.10
2019-01-24T21:47:06.110Z,102.02
2019-01-24T21:49:36.339Z,84.65
2019-01-24T21:52:05.716Z,85.90
2019-01-24T21:54:35.736Z,90.45
2019-01-24T21:57:06.223Z,84.65
2019-01-24T21:59:37.052Z,91.45
2019-01-24T22:02:07.114Z,93.03
2019-01-24T22:04:37.626Z,80.80
2019-01-24T22:07:07.427Z,88.58
2019-01-24T22:09:38.297Z,79.42
2019-01-24T22:12:07.722Z,83.37
2019-01-24T22:14:38.165Z,70.05
2019-01-24T22:17:07.899Z,85.92
2019-01-24T22:19:37.688Z,82.02
2019-01-24T22:22:07.682Z,77.42
2019-01-24T22:24:37.739Z,80.72
2019-01-24T22:27:07.495Z,79.15
2019-01-24T22:29:38.136Z,72.50
2019-01-24T22:32:08.117Z,84.00
2019-01-24T22:34:40.823Z,72.35
2019-01-24T22:37:10.946Z,69.10
2019-01-24T22:39:43.036Z,76.10
2019-01-24T22:42:14.554Z,65.08
2019-01-24T22:44:44.999Z,80.77
2019-01-24T22:47:15.192Z,68.65
2019-01-24T22:49:46.297Z,62.93
2019-01-24T22:52:16.400Z,73.40
2019-01-24T22:54:48.479Z,65.67
2019-01-24T22:57:18.871Z,69.95
2019-01-24T22:59:47.287Z,56.35
2019-01-24T23:02:18.616Z,64.75
2019-01-24T23:04:48.582Z,63.98
2019-01-24T23:07:18.927Z,66.07
2019-01-24T23:09:50.433Z,66.90
2019-01-24T23:12:18.893Z,61.33
2019-01-24T23:14:48.666Z,60.50
2019-01-24T23:17:18.527Z,75.15
2019-01-24T23:19:48.107Z,73.07
2019-01-24T23:22:18.469Z,76.85
2019-01-24T23:24:48.418Z,67.42
2019-01-24T23:27:18.303Z,66.57
2019-01-24T23:29:50.647Z,59.60
2019-01-24T23:32:21.056Z,63.98
2019-01-24T23:34:52.025Z,73.37
2019-01-24T23:37:23.398Z,67.42
2019-01-24T23:39:54.610Z,66.15
2019-01-24T23:42:24.348Z,59.38
2019-01-24T23:44:56.683Z,66.77
2019-01-24T23:47:28.080Z,70.32
2019-01-24T23:49:56.760Z,62.73
2019-01-24T23:52:25.669Z,69.42
2019-01-24T23:54:55.887Z,65.08
2019-01-24T23:57:26.067Z,63.08
2019-01-24T23:59:56.414Z,73.57
